Aérodrome :
LOGIN :

S'inscrire | Disclaimer

   EN    FR    IT 

 










Légende :    VFR   VFR Marginal   IFR   IFR Intensif   IFR Très Intensif
Visi : 
Plafond : 
>= 8 km
>= 3000ft
5 à 8 km
1000 à 3000 ft
1500m à 5 km
500 à 1000 ft
800 à 1500m
200 à 500 ft
< 800m
< 200 ft
Symboles :   Orages  Brouillard  Fortes neiges  Fortes précipitations  Vent > 20 kt
SIGMETs :   Divers  Orages  Givrage  Turbulence  Onde Orograph.  Cendres Volcan.






- Altitude de l'aérodrome : 82 ft
- Code IATA : ALG


DAAG - Alger Houari Boumedienne

DERNIER METAR :
  • 180400Z 00000KT 9999 FEW016 15/14 Q1018

METARs EXPIRÉS :
  • 180330Z 20003KT 170V260 9999 FEW016 16/15 Q1019
  • 180300Z 00000KT 9999 FEW016 16/14 Q1019
  • 180230Z 24003KT 9999 FEW016 16/15 Q1019
  • 180200Z 29002KT CAVOK 16/14 Q1019
  • 180130Z 21003KT CAVOK 16/15 Q1019
  • 180100Z 25002KT CAVOK 17/15 Q1019

TAF TAF DAAG
Valide du 18 à 00h jusqu'au 19 à 00h UTC


172300Z 1800/1824 VRB02KT 9999 FEW020
PROB30
TEMPO 1802/1806 5000 BR BKN015
BECMG 1809/1812 32010KT
BECMG 1816/1819 VRB02KT



MET'MAP, la Météo Aéronautique d'un coup d'oeil ! - Copyright ORBIFLY Décembre 2007 - Disclaimer

ORBIFLY MET'MAP TEAM :

Programmation & Développement : Alexandra Zaïnal
Conception & Développement : Baudouin d'Aumeries
Co-Programmation & Développement : Marc-Olivier Méhu
Soutien technique & logistique : Manuel Goepfert

Contact : metmap@orbifly.com




SOURCES & CREDITS :

   NOAA